Time;durP1;ratioP1;P1;durP2;ratioP2;P2;SDS_P1;SDS_P2;PMS_P1;PMS_P2;Temp;Humidity;BMP_temperature;BMP_pressure;BME280_temperature;BME280_humidity;BME280_pressure;Samples;Min_cycle;Max_cycle;Signal;HPM_P1;HPM_P2
2021/04/29 00:01:25;;;;;;;4.20;4.00;;;;;;;12.82;45.46;99650.34;4397950;32;20613;-65
2021/04/29 00:03:50;;;;;;;4.03;3.83;;;;;;;12.71;46.60;99657.28;4413973;32;20504;-65
2021/04/29 00:06:16;;;;;;;4.22;4.03;;;;;;;12.64;46.54;99642.06;4399056;32;20096;-66
2021/04/29 00:08:41;;;;;;;4.20;4.00;;;;;;;12.51;47.08;99640.41;4424347;32;20151;-64
2021/04/29 00:11:07;;;;;;;4.05;3.85;;;;;;;12.51;47.82;99648.28;4399140;32;20069;-65
2021/04/29 00:13:33;;;;;;;4.30;4.10;;;;;;;12.43;48.41;99652.44;4400063;32;20073;-65
2021/04/29 00:15:58;;;;;;;4.10;3.90;;;;;;;12.38;47.88;99658.06;4400632;32;20086;-65
2021/04/29 00:18:24;;;;;;;3.75;3.65;;;;;;;12.30;48.16;99645.50;4402802;32;20105;-65
2021/04/29 00:20:54;;;;;;;4.00;3.80;;;;;;;12.32;47.04;99659.38;4403761;32;20077;-65
2021/04/29 00:23:20;;;;;;;4.60;4.25;;;;;;;12.28;47.65;99651.84;4414839;32;20069;-65
2021/04/29 00:25:45;;;;;;;4.00;3.80;;;;;;;12.21;48.64;99648.84;4405941;32;20664;-65
2021/04/29 00:28:10;;;;;;;4.20;4.00;;;;;;;12.17;48.94;99645.59;4405169;32;20091;-66
2021/04/29 00:30:36;;;;;;;4.15;3.95;;;;;;;12.11;48.70;99646.06;4405870;32;20065;-66
2021/04/29 00:33:01;;;;;;;4.20;4.00;;;;;;;12.06;49.25;99647.38;4403790;32;20721;-65
2021/04/29 00:35:26;;;;;;;4.30;4.10;;;;;;;12.07;50.32;99649.06;4395017;32;20057;-66
2021/04/29 00:37:52;;;;;;;4.28;4.07;;;;;;;12.01;50.07;99646.84;4432537;32;20068;-65
2021/04/29 00:40:17;;;;;;;4.15;3.95;;;;;;;10.91;50.77;99488.56;4398131;32;20212;-65
2021/04/29 00:42:43;;;;;;;3.95;3.80;;;;;;;11.87;50.50;99647.88;4418573;32;20087;-65
2021/04/29 00:45:10;;;;;;;4.30;4.10;;;;;;;11.66;50.80;99632.72;4407921;32;20653;-64
2021/04/29 00:47:36;;;;;;;3.95;3.80;;;;;;;11.68;51.43;99649.22;4403492;32;20084;-65
2021/04/29 00:50:03;;;;;;;4.12;3.92;;;;;;;11.62;51.76;99648.84;4404878;32;20121;-65
2021/04/29 00:52:29;;;;;;;3.83;3.72;;;;;;;11.56;51.51;99647.50;4402098;32;21050;-65
2021/04/29 00:54:55;;;;;;;3.80;3.70;;;;;;;11.57;51.38;99647.38;4406478;32;20080;-66
2021/04/29 00:57:20;;;;;;;4.10;3.90;;;;;;;11.53;50.98;99651.19;4399474;32;20064;-65
2021/04/29 00:59:45;;;;;;;3.95;3.80;;;;;;;11.50;50.58;99667.16;4402259;32;20645;-66
2021/04/29 01:02:11;;;;;;;4.10;3.90;;;;;;;11.40;51.40;99650.41;4415823;32;20455;-66
2021/04/29 01:04:44;;;;;;;4.65;4.45;;;;;;;11.34;52.06;99658.72;4393673;32;20056;-64
2021/04/29 01:07:11;;;;;;;4.20;4.00;;;;;;;11.28;52.11;99660.00;4399563;32;20478;-66
2021/04/29 01:09:47;;;;;;;4.18;3.97;;;;;;;11.23;52.56;99663.94;4405139;32;20272;-64
2021/04/29 01:12:17;;;;;;;4.00;3.80;;;;;;;11.20;52.17;99657.09;4402588;32;20335;-65
2021/04/29 01:14:42;;;;;;;3.80;3.70;;;;;;;11.18;52.69;99659.84;4399296;32;20075;-65
2021/04/29 01:17:08;;;;;;;3.80;3.70;;;;;;;11.15;53.45;99661.84;4403115;32;20440;-64
2021/04/29 01:19:43;;;;;;;4.05;3.85;;;;;;;11.13;53.65;99661.94;4400161;32;20213;-65
2021/04/29 01:22:08;;;;;;;3.85;3.72;;;;;;;11.11;53.23;99658.59;4401077;32;20073;-65
2021/04/29 01:24:39;;;;;;;4.07;3.87;;;;;;;11.12;52.86;99664.69;4426746;32;20076;-67
2021/04/29 01:27:05;;;;;;;4.22;4.03;;;;;;;11.13;54.45;99667.19;4405143;32;20331;-68
2021/04/29 01:29:30;;;;;;;3.60;3.50;;;;;;;11.06;52.58;99644.09;4421622;32;20069;-67
2021/04/29 01:31:56;;;;;;;4.10;3.90;;;;;;;11.07;53.66;99632.66;4401142;32;20559;-66
2021/04/29 01:34:23;;;;;;;4.20;4.00;;;;;;;11.33;53.85;99655.28;4400208;32;20094;-68
2021/04/29 01:36:49;;;;;;;4.00;3.80;;;;;;;11.49;54.72;99659.41;4391651;32;20183;-68
2021/04/29 01:39:15;;;;;;;3.83;3.72;;;;;;;11.53;53.87;99653.00;4405689;32;20065;-68
2021/04/29 01:41:43;;;;;;;4.30;4.10;;;;;;;11.66;53.77;99663.44;4416288;32;20064;-67
2021/04/29 01:44:08;;;;;;;3.80;3.70;;;;;;;11.56;53.99;99632.56;4400565;32;20092;-67
2021/04/29 01:46:34;;;;;;;3.83;3.70;;;;;;;11.71;53.17;99643.75;4403019;32;20089;-68
2021/04/29 01:49:00;;;;;;;4.10;3.90;;;;;;;11.67;53.38;99628.34;4403397;32;20096;-68
2021/04/29 01:51:26;;;;;;;4.10;3.90;;;;;;;11.90;54.04;99659.00;4404313;32;20065;-68
2021/04/29 01:53:51;;;;;;;4.05;3.85;;;;;;;11.95;54.34;99659.53;4427056;32;20075;-68
2021/04/29 01:56:16;;;;;;;3.90;3.70;;;;;;;11.72;53.56;99627.00;4409677;32;20076;-67
2021/04/29 01:58:42;;;;;;;3.80;3.60;;;;;;;12.03;54.35;99665.97;4411613;32;20600;-68
2021/04/29 02:01:07;;;;;;;4.00;3.80;;;;;;;12.03;55.04;99665.97;4400437;32;20061;-68
2021/04/29 02:03:33;;;;;;;4.40;4.20;;;;;;;12.05;53.78;99669.38;4411718;32;20064;-68
2021/04/29 02:05:58;;;;;;;3.67;3.58;;;;;;;12.05;54.21;99672.00;4403877;32;20516;-68
2021/04/29 02:08:23;;;;;;;3.92;3.75;;;;;;;12.06;53.50;99673.66;4398611;32;20069;-68
2021/04/29 02:10:50;;;;;;;4.40;4.20;;;;;;;12.03;54.21;99672.09;4404013;32;20089;-67
2021/04/29 02:13:15;;;;;;;3.58;3.47;;;;;;;11.25;54.12;99546.47;4395244;32;20509;-67
2021/04/29 02:15:43;;;;;;;3.90;3.70;;;;;;;12.10;54.37;99672.47;4412375;32;20948;-68
2021/04/29 02:18:12;;;;;;;4.28;3.97;;;;;;;12.10;54.28;99673.31;4398287;32;20143;-68
2021/04/29 02:20:42;;;;;;;4.25;4.05;;;;;;;12.10;54.96;99672.47;4411719;32;20088;-67
2021/04/29 02:23:12;;;;;;;3.70;3.60;;;;;;;12.11;54.97;99674.16;4411342;32;20090;-68
2021/04/29 02:25:38;;;;;;;3.70;3.60;;;;;;;12.10;54.43;99675.09;4401346;32;20072;-66
2021/04/29 02:28:03;;;;;;;4.00;3.80;;;;;;;12.14;54.88;99684.44;4402343;32;20640;-66
2021/04/29 02:30:29;;;;;;;4.60;4.30;;;;;;;12.09;54.32;99681.34;4400171;32;20173;-67
2021/04/29 02:32:54;;;;;;;3.80;3.70;;;;;;;12.06;54.41;99681.56;4422430;32;20472;-67
2021/04/29 02:35:20;;;;;;;4.40;4.15;;;;;;;12.02;55.69;99680.94;4407605;32;20346;-68
2021/04/29 02:37:47;;;;;;;4.00;3.80;;;;;;;12.01;54.86;99681.91;4415573;32;20085;-67
2021/04/29 02:40:13;;;;;;;3.80;3.70;;;;;;;12.04;55.23;99672.94;4396635;32;20675;-67
2021/04/29 02:42:39;;;;;;;4.00;3.83;;;;;;;12.03;55.09;99676.50;4427116;32;20081;-67
2021/04/29 02:45:07;;;;;;;3.70;3.60;;;;;;;12.02;55.89;99670.41;4401704;32;20176;-67
2021/04/29 02:47:32;;;;;;;3.90;3.72;;;;;;;12.03;54.87;99671.25;4396944;32;20216;-68
2021/04/29 02:49:57;;;;;;;4.03;3.85;;;;;;;12.04;54.83;99667.69;4402300;32;20065;-68
2021/04/29 02:52:23;;;;;;;4.32;4.12;;;;;;;11.99;56.14;99670.66;4397358;32;20572;-67
2021/04/29 02:54:48;;;;;;;3.83;3.72;;;;;;;11.92;55.96;99666.78;4403465;32;20088;-67
2021/04/29 02:57:23;;;;;;;4.10;3.90;;;;;;;11.97;55.97;99672.56;4395883;32;20057;-67
2021/04/29 02:59:49;;;;;;;4.53;4.32;;;;;;;11.97;55.76;99672.56;4394113;32;20102;-68
2021/04/29 03:02:15;;;;;;;4.07;3.75;;;;;;;11.95;56.25;99674.47;4398775;32;20083;-67
2021/04/29 03:04:41;;;;;;;4.30;4.10;;;;;;;11.89;56.38;99669.66;4395821;32;20076;-68
2021/04/29 03:07:06;;;;;;;5.00;4.80;;;;;;;11.88;56.96;99657.44;4397971;32;20647;-68
2021/04/29 03:09:32;;;;;;;4.00;3.80;;;;;;;11.78;55.94;99665.97;4400836;32;20069;-68
2021/04/29 03:11:57;;;;;;;4.18;3.97;;;;;;;11.78;56.51;99673.03;4404707;32;20065;-67
2021/04/29 03:14:22;;;;;;;4.78;4.22;;;;;;;11.76;56.23;99672.31;4400874;32;20122;-68
2021/04/29 03:16:48;;;;;;;3.80;3.70;;;;;;;11.76;56.60;99685.47;4404275;32;20384;-66
2021/04/29 03:19:13;;;;;;;3.90;3.70;;;;;;;11.73;57.25;99677.81;4400869;32;20080;-66
2021/04/29 03:21:38;;;;;;;4.00;3.80;;;;;;;11.69;57.77;99677.19;4405507;32;20065;-67
2021/04/29 03:24:04;;;;;;;4.20;4.00;;;;;;;11.66;56.77;99676.56;4403596;32;20065;-68
2021/04/29 03:26:29;;;;;;;3.92;3.72;;;;;;;11.65;56.79;99674.91;4419432;32;20182;-67
2021/04/29 03:28:55;;;;;;;3.90;3.80;;;;;;;11.66;57.15;99671.31;4404486;32;20104;-66
2021/04/29 03:31:20;;;;;;;4.03;3.83;;;;;;;11.53;57.28;99663.50;4413687;32;20082;-68
2021/04/29 03:33:46;;;;;;;3.72;3.62;;;;;;;11.14;58.96;99613.72;4408662;32;20092;-67
2021/04/29 03:36:11;;;;;;;4.00;3.80;;;;;;;11.55;58.17;99674.75;4403753;32;20061;-67
2021/04/29 03:38:36;;;;;;;4.10;3.90;;;;;;;11.52;57.75;99681.03;4393891;32;20076;-68
2021/04/29 03:41:02;;;;;;;4.10;3.90;;;;;;;11.52;58.64;99678.41;4409158;32;20311;-67
2021/04/29 03:43:27;;;;;;;4.30;4.10;;;;;;;11.53;58.54;99684.53;4410301;32;21084;-66
2021/04/29 03:45:52;;;;;;;3.60;3.50;;;;;;;11.55;58.10;99688.72;4408451;32;20333;-67
2021/04/29 03:48:18;;;;;;;3.85;3.75;;;;;;;11.44;58.99;99699.13;4401173;32;20699;-67
2021/04/29 03:50:43;;;;;;;4.15;3.95;;;;;;;10.22;59.30;99514.41;4407900;32;20088;-65
2021/04/29 03:53:09;;;;;;;4.20;4.00;;;;;;;11.30;60.12;99705.38;4401529;32;20091;-64
2021/04/29 03:55:34;;;;;;;3.92;3.78;;;;;;;11.31;60.01;99703.63;4392830;32;20073;-64
2021/04/29 03:57:59;;;;;;;4.03;3.83;;;;;;;11.28;60.25;99703.81;4401124;32;20322;-67
2021/04/29 04:00:25;;;;;;;4.25;4.05;;;;;;;11.25;60.51;99710.13;4403038;32;20068;-65
2021/04/29 04:02:50;;;;;;;4.25;4.05;;;;;;;11.26;59.96;99710.97;4403928;32;20119;-64
2021/04/29 04:05:16;;;;;;;3.70;3.60;;;;;;;11.23;60.57;99713.81;4419227;32;20484;-65
2021/04/29 04:07:41;;;;;;;4.10;3.90;;;;;;;11.17;60.43;99712.47;4401539;32;20073;-67
2021/04/29 04:10:07;;;;;;;4.30;4.10;;;;;;;11.13;60.20;99711.84;4409084;32;20080;-68
2021/04/29 04:12:33;;;;;;;3.87;3.72;;;;;;;11.11;60.53;99726.87;4402672;32;20143;-67
2021/04/29 04:14:59;;;;;;;4.40;4.20;;;;;;;11.08;60.71;99713.09;4402802;32;20082;-64
2021/04/29 04:17:24;;;;;;;4.20;4.00;;;;;;;11.13;60.19;99730.22;4412258;32;20077;-63
2021/04/29 04:19:50;;;;;;;4.00;3.83;;;;;;;11.12;60.53;99730.31;4416703;32;20092;-63
2021/04/29 04:22:15;;;;;;;4.00;3.80;;;;;;;11.06;61.63;99731.59;4399907;32;20068;-63
2021/04/29 04:24:40;;;;;;;4.10;3.90;;;;;;;11.02;61.27;99738.00;4415073;32;20484;-62
2021/04/29 04:27:06;;;;;;;4.10;3.90;;;;;;;11.01;61.68;99740.75;4404672;32;20079;-63
2021/04/29 04:29:32;;;;;;;4.20;4.00;;;;;;;10.96;62.13;99733.16;4419251;32;20096;-63
2021/04/29 04:31:57;;;;;;;3.80;3.70;;;;;;;10.96;61.23;99744.53;4401237;32;20698;-63
2021/04/29 04:34:22;;;;;;;4.40;4.10;;;;;;;10.98;62.00;99739.16;4409064;32;20072;-62
2021/04/29 04:36:48;;;;;;;4.90;4.60;;;;;;;10.97;61.87;99754.06;4395779;32;20175;-63
2021/04/29 04:39:13;;;;;;;4.53;4.32;;;;;;;10.99;61.29;99751.34;4415247;32;20064;-64
2021/04/29 04:41:38;;;;;;;4.20;4.00;;;;;;;10.98;61.97;99758.41;4416187;32;20077;-63
2021/04/29 04:44:04;;;;;;;3.85;3.65;;;;;;;10.94;62.08;99756.06;4409717;32;20764;-63
2021/04/29 04:46:29;;;;;;;3.90;3.75;;;;;;;10.91;62.08;99772.87;4403364;32;20108;-63
2021/04/29 04:48:55;;;;;;;4.87;4.47;;;;;;;10.85;62.86;99762.78;4411085;32;20083;-63
2021/04/29 04:51:20;;;;;;;4.62;4.43;;;;;;;10.83;61.54;99767.31;4415426;32;20077;-63
2021/04/29 04:53:45;;;;;;;4.60;4.37;;;;;;;10.44;61.15;99694.75;4416721;32;20069;-63
2021/04/29 04:56:11;;;;;;;4.65;4.40;;;;;;;10.86;61.43;99766.25;4397548;32;20649;-63
2021/04/29 04:58:36;;;;;;;4.32;4.12;;;;;;;10.77;60.77;99768.56;4415673;32;20076;-62
2021/04/29 05:01:02;;;;;;;4.15;3.95;;;;;;;10.67;61.07;99774.56;4404770;32;20078;-63
2021/04/29 05:03:27;;;;;;;4.40;4.10;;;;;;;10.66;61.01;99768.44;4413276;32;20072;-63
2021/04/29 05:05:52;;;;;;;4.12;3.92;;;;;;;10.69;61.56;99767.41;4406384;32;20616;-62
2021/04/29 05:08:18;;;;;;;4.40;4.20;;;;;;;10.68;61.23;99761.31;4400243;32;20123;-63
2021/04/29 05:10:43;;;;;;;4.30;4.10;;;;;;;10.27;60.34;99701.94;4397731;32;20080;-63
2021/04/29 05:13:09;;;;;;;4.55;4.35;;;;;;;10.49;62.14;99779.25;4401179;32;20528;-62
2021/04/29 05:15:34;;;;;;;4.40;4.10;;;;;;;10.46;61.94;99776.81;4413481;32;20195;-63
2021/04/29 05:18:00;;;;;;;3.87;3.72;;;;;;;10.48;61.83;99774.94;4397664;32;21002;-62
2021/04/29 05:20:25;;;;;;;4.53;4.32;;;;;;;10.33;62.03;99764.50;4398341;32;20950;-63
2021/04/29 05:22:51;;;;;;;6.72;5.30;;;;;;;10.44;62.05;99776.91;4414820;32;20110;-63
2021/04/29 05:25:17;;;;;;;4.20;4.00;;;;;;;10.35;62.79;99782.78;4402644;32;20073;-63
2021/04/29 05:27:42;;;;;;;3.95;3.75;;;;;;;10.60;62.48;99784.59;4419226;32;20576;-61
2021/04/29 05:30:08;;;;;;;3.70;3.60;;;;;;;10.83;61.44;99769.94;4398822;32;20085;-63
2021/04/29 05:32:33;;;;;;;4.40;4.20;;;;;;;10.88;60.15;99733.69;4409249;32;20142;-63
2021/04/29 05:34:59;;;;;;;4.20;4.00;;;;;;;11.05;59.98;99776.34;4399025;32;20076;-63
2021/04/29 05:37:25;;;;;;;4.00;3.80;;;;;;;11.07;59.74;99782.34;4401958;32;20215;-63
2021/04/29 05:39:51;;;;;;;4.55;4.25;;;;;;;11.21;60.00;99779.59;4409486;32;20135;-62
2021/04/29 05:42:16;;;;;;;4.45;4.25;;;;;;;10.98;61.03;99773.28;4397607;32;20066;-63
2021/04/29 05:44:41;;;;;;;4.65;4.45;;;;;;;11.48;58.94;99782.03;4398001;32;20855;-62
2021/04/29 05:47:08;;;;;;;4.40;4.10;;;;;;;11.65;58.69;99780.87;4393739;32;20076;-63
2021/04/29 05:49:33;;;;;;;4.57;4.28;;;;;;;11.83;58.38;99781.34;4422819;32;20511;-62
2021/04/29 05:51:58;;;;;;;5.93;4.35;;;;;;;11.54;57.43;99746.62;4398819;32;20085;-63
2021/04/29 05:54:24;;;;;;;4.00;3.80;;;;;;;11.87;58.28;99787.22;4409167;32;20093;-62
2021/04/29 05:56:49;;;;;;;4.15;3.95;;;;;;;12.08;57.19;99795.34;4401797;32;20080;-63
2021/04/29 05:59:14;;;;;;;3.83;3.65;;;;;;;12.11;57.48;99789.88;4401515;32;20085;-63
2021/04/29 06:01:40;;;;;;;4.55;4.35;;;;;;;12.13;56.52;99794.06;4409805;32;20100;-63
2021/04/29 06:04:05;;;;;;;4.60;4.40;;;;;;;11.62;58.45;99791.59;4399449;32;20107;-64
2021/04/29 06:06:30;;;;;;;4.97;4.70;;;;;;;11.68;57.11;99785.06;4394009;32;20088;-62
2021/04/29 06:08:56;;;;;;;4.20;4.00;;;;;;;11.55;58.75;99801.69;4397292;32;20305;-62
2021/04/29 06:11:21;;;;;;;4.93;4.68;;;;;;;11.45;58.49;99800.66;4396036;32;20100;-64
2021/04/29 06:13:46;;;;;;;4.70;4.50;;;;;;;11.43;57.83;99799.94;4396093;32;20061;-64
2021/04/29 06:16:14;;;;;;;4.47;4.28;;;;;;;11.33;58.21;99805.00;4396786;32;20895;-63
2021/04/29 06:18:40;;;;;;;4.00;3.80;;;;;;;11.26;59.15;99805.53;4396824;32;20552;-64
2021/04/29 06:21:05;;;;;;;6.03;5.62;;;;;;;11.07;59.08;99804.16;4395498;32;23764;-64
2021/04/29 06:23:32;;;;;;;4.43;4.22;;;;;;;11.14;58.73;99818.53;4386400;32;20408;-63
2021/04/29 06:25:57;;;;;;;5.70;4.53;;;;;;;11.04;59.12;99782.53;4385361;32;20939;-64
2021/04/29 06:28:23;;;;;;;4.55;4.35;;;;;;;11.40;57.72;99820.31;4408044;32;20069;-66
2021/04/29 06:30:48;;;;;;;4.30;4.10;;;;;;;11.00;59.37;99831.78;4387259;32;20535;-66
2021/04/29 06:33:13;;;;;;;4.10;3.90;;;;;;;11.05;59.17;99828.84;4398117;32;20072;-65
2021/04/29 06:35:39;;;;;;;4.55;4.35;;;;;;;10.97;58.26;99835.47;4398963;32;20085;-66
2021/04/29 06:38:04;;;;;;;4.20;4.00;;;;;;;11.21;58.04;99826.84;4409427;32;20770;-67
2021/04/29 06:40:29;;;;;;;4.37;4.18;;;;;;;11.36;59.43;99831.03;4394084;32;20077;-64
2021/04/29 06:42:55;;;;;;;4.82;4.62;;;;;;;11.56;58.53;99829.62;4406241;32;20085;-65
2021/04/29 06:45:20;;;;;;;4.60;4.40;;;;;;;11.95;57.81;99824.34;4392293;32;20079;-64
2021/04/29 06:47:47;;;;;;;5.90;5.60;;;;;;;12.07;57.80;99822.62;4408572;32;20479;-64
2021/04/29 06:50:12;;;;;;;5.10;4.80;;;;;;;11.57;59.88;99839.22;4392181;32;20262;-65
2021/04/29 06:52:37;;;;;;;4.15;3.95;;;;;;;11.96;58.79;99829.47;4409496;32;20077;-66
2021/04/29 06:55:03;;;;;;;4.35;4.15;;;;;;;11.96;58.50;99836.53;4404207;32;20628;-65
2021/04/29 06:57:28;;;;;;;4.87;4.47;;;;;;;11.76;59.73;99812.47;4399112;32;20677;-70
2021/04/29 06:59:54;;;;;;;4.85;4.65;;;;;;;12.06;59.92;99834.91;4399288;32;20134;-68
2021/04/29 07:02:19;;;;;;;4.20;4.00;;;;;;;12.18;59.29;99835.81;4398307;32;20430;-70
2021/04/29 07:04:45;;;;;;;4.45;4.25;;;;;;;12.55;57.64;99835.75;4402617;32;20154;-68
2021/04/29 07:07:10;;;;;;;5.00;4.80;;;;;;;12.41;58.01;99817.50;4397559;32;20076;-65
2021/04/29 07:09:35;;;;;;;4.47;4.28;;;;;;;12.38;58.10;99856.25;4396006;32;20151;-70
2021/04/29 07:12:01;;;;;;;4.93;4.68;;;;;;;12.28;58.94;99847.34;4397934;32;20083;-67
2021/04/29 07:14:26;;;;;;;5.05;4.72;;;;;;;12.36;58.41;99852.88;4396733;32;20714;-65
2021/04/29 07:16:51;;;;;;;4.37;4.18;;;;;;;12.48;58.68;99851.16;4400823;32;20092;-65
2021/04/29 07:19:17;;;;;;;4.50;4.28;;;;;;;12.60;57.38;99856.47;4399407;32;20091;-65
2021/04/29 07:21:42;;;;;;;4.70;4.40;;;;;;;12.17;59.52;99853.41;4412086;32;20073;-66
2021/04/29 07:24:08;;;;;;;10.30;4.70;;;;;;;12.28;58.65;99860.50;4399874;32;20720;-65
2021/04/29 07:26:34;;;;;;;5.25;4.70;;;;;;;12.64;58.78;99860.56;4387432;32;20148;-64
2021/04/29 07:29:03;;;;;;;5.35;5.05;;;;;;;12.86;57.80;99891.38;4403859;32;20073;-62
2021/04/29 07:31:28;;;;;;;4.97;4.78;;;;;;;12.38;56.87;99732.56;4397247;32;20165;-70
2021/04/29 07:33:53;;;;;;;5.55;5.15;;;;;;;13.35;55.34;99867.47;4413915;32;20702;-68
2021/04/29 07:36:19;;;;;;;4.93;4.72;;;;;;;13.23;56.15;99876.28;4399934;32;20204;-68
2021/04/29 07:38:44;;;;;;;5.72;5.25;;;;;;;13.42;55.57;99874.91;4408031;32;20107;-67
2021/04/29 07:41:10;;;;;;;5.53;5.12;;;;;;;13.69;54.67;99870.13;4409990;32;20503;-68
2021/04/29 07:43:35;;;;;;;5.50;5.20;;;;;;;13.91;53.56;99852.56;4403950;32;20484;-71
2021/04/29 07:46:00;;;;;;;5.78;5.37;;;;;;;13.74;53.36;99872.37;4402673;32;20061;-65
2021/04/29 07:48:26;;;;;;;5.03;4.78;;;;;;;13.53;53.30;99866.97;4402908;32;20684;-67
2021/04/29 07:50:51;;;;;;;5.18;4.75;;;;;;;13.66;54.46;99872.16;4398749;32;20545;-67
2021/04/29 07:53:17;;;;;;;5.32;4.93;;;;;;;13.54;53.58;99880.03;4401472;32;20342;-70
2021/04/29 07:55:42;;;;;;;5.25;4.90;;;;;;;13.30;54.72;99869.59;4411694;32;20135;-66
2021/04/29 07:58:07;;;;;;;4.93;4.62;;;;;;;13.03;54.97;99880.44;4394974;32;20243;-67
2021/04/29 08:00:33;;;;;;;4.80;4.50;;;;;;;13.28;54.48;99884.66;4398400;32;20069;-66
2021/04/29 08:02:58;;;;;;;4.90;4.68;;;;;;;13.41;52.84;99849.47;4397081;32;20123;-65
2021/04/29 08:05:23;;;;;;;5.47;5.18;;;;;;;13.22;53.36;99887.75;4399156;32;20597;-67
2021/04/29 08:07:51;;;;;;;4.75;4.55;;;;;;;13.40;52.70;99880.28;4401159;32;20150;-68
2021/04/29 08:10:16;;;;;;;5.95;5.35;;;;;;;13.51;52.74;99892.63;4402479;32;20073;-67
2021/04/29 08:12:42;;;;;;;5.87;4.40;;;;;;;13.40;52.69;99890.00;4395019;32;20621;-65
2021/04/29 08:15:07;;;;;;;4.80;4.50;;;;;;;13.75;52.45;99885.44;4402203;32;20131;-65
2021/04/29 08:17:33;;;;;;;4.57;4.28;;;;;;;13.73;51.95;99895.28;4400720;32;20069;-67
2021/04/29 08:19:58;;;;;;;4.87;4.68;;;;;;;13.56;50.81;99891.31;4402444;32;20087;-67
2021/04/29 08:22:24;;;;;;;5.05;4.75;;;;;;;13.68;51.99;99900.06;4398889;32;20064;-68
2021/04/29 08:24:49;;;;;;;5.72;5.30;;;;;;;13.91;51.06;99890.38;4400227;32;20586;-67
2021/04/29 08:27:15;;;;;;;5.10;4.80;;;;;;;14.08;50.40;99909.28;4396496;32;20091;-67
2021/04/29 08:29:40;;;;;;;4.97;4.50;;;;;;;13.52;51.90;99910.13;4399640;32;20393;-68
2021/04/29 08:32:05;;;;;;;4.45;4.25;;;;;;;13.23;52.45;99901.78;4403918;32;20079;-67
2021/04/29 08:34:31;;;;;;;4.70;4.50;;;;;;;13.10;52.48;99921.12;4396897;32;20617;-65
2021/04/29 08:36:56;;;;;;;4.78;4.57;;;;;;;13.32;49.99;99924.84;4401507;32;20068;-67
2021/04/29 08:39:21;;;;;;;5.20;4.97;;;;;;;13.18;51.35;99917.94;4398128;32;20069;-67
2021/04/29 08:41:47;;;;;;;6.45;6.05;;;;;;;13.22;51.08;99918.56;4399328;32;20644;-67
2021/04/29 08:44:12;;;;;;;4.57;4.28;;;;;;;13.33;50.19;99906.28;4392780;32;20091;-67
2021/04/29 08:46:38;;;;;;;4.60;4.40;;;;;;;12.61;50.05;99777.41;4407921;32;20080;-66
2021/04/29 08:49:03;;;;;;;5.60;4.50;;;;;;;13.75;49.99;99926.78;4402158;32;20569;-65
2021/04/29 08:51:28;;;;;;;5.47;5.18;;;;;;;13.26;50.25;99926.09;4409062;32;20150;-67
2021/04/29 08:53:54;;;;;;;5.40;5.05;;;;;;;13.47;49.90;99939.47;4399887;32;20384;-67
2021/04/29 08:56:25;;;;;;;4.68;4.47;;;;;;;13.86;49.33;99932.06;4410714;32;20563;-67
2021/04/29 08:58:51;;;;;;;4.80;4.60;;;;;;;13.57;50.63;99940.44;4402207;32;20321;-67
2021/04/29 09:01:16;;;;;;;5.40;5.20;;;;;;;14.09;48.58;99934.69;4396495;32;20069;-67
2021/04/29 09:03:42;;;;;;;5.00;4.72;;;;;;;14.16;48.14;99931.44;4396699;32;20068;-67
2021/04/29 09:06:07;;;;;;;4.60;4.40;;;;;;;13.95;46.90;99901.47;4398423;32;20080;-68
2021/04/29 09:08:34;;;;;;;5.43;5.10;;;;;;;13.95;47.76;99941.06;4405656;32;20581;-68
2021/04/29 09:11:16;;;;;;;5.53;5.22;;;;;;;13.53;48.46;99939.00;4402242;32;20095;-68
2021/04/29 09:13:59;;;;;;;4.90;4.60;;;;;;;13.21;50.28;99951.97;4397211;32;20069;-67
2021/04/29 09:16:35;;;;;;;4.60;4.40;;;;;;;13.48;48.67;99951.69;4397633;32;20154;-67
2021/04/29 09:19:00;;;;;;;4.90;4.60;;;;;;;13.44;48.76;99944.97;4398776;32;20103;-66
2021/04/29 09:21:31;;;;;;;4.70;4.50;;;;;;;13.29;48.45;99872.31;4390573;32;20665;-68
2021/04/29 09:23:56;;;;;;;4.40;4.20;;;;;;;13.39;50.56;99949.78;4411260;32;20069;-67
2021/04/29 09:26:22;;;;;;;5.03;4.72;;;;;;;13.71;49.44;99949.94;4397883;32;20157;-67
2021/04/29 09:28:48;;;;;;;6.00;5.62;;;;;;;13.53;50.07;99960.09;4394287;32;20072;-66
2021/04/29 09:31:17;;;;;;;5.47;5.12;;;;;;;13.36;50.05;99958.72;4397036;32;20374;-64
2021/04/29 09:34:02;;;;;;;4.65;4.45;;;;;;;13.04;50.52;99970.81;4400421;32;20073;-64
2021/04/29 09:36:35;;;;;;;4.68;4.43;;;;;;;13.20;50.66;99954.72;4413742;32;20068;-64
2021/04/29 09:39:06;;;;;;;4.72;4.53;;;;;;;13.20;51.35;99939.72;4412602;32;20137;-64
2021/04/29 09:41:36;;;;;;;4.30;4.10;;;;;;;13.35;49.48;99958.88;4400926;32;20111;-64
2021/04/29 09:44:09;;;;;;;10.18;5.40;;;;;;;14.06;49.19;99959.53;4401381;32;20120;-65
2021/04/29 09:46:38;;;;;;;5.18;4.90;;;;;;;14.66;47.00;99960.06;4400484;32;20586;-67
2021/04/29 09:49:16;;;;;;;5.85;5.45;;;;;;;14.12;48.11;99958.22;4399343;32;20065;-67
2021/04/29 09:51:41;;;;;;;4.87;4.65;;;;;;;14.31;45.90;99944.38;4406585;32;20091;-65
2021/04/29 09:54:07;;;;;;;5.22;4.95;;;;;;;13.94;45.65;99958.69;4399002;32;20578;-67
2021/04/29 09:56:32;;;;;;;5.18;4.93;;;;;;;13.79;46.79;99948.50;4397149;32;20076;-65
2021/04/29 09:58:59;;;;;;;5.68;5.22;;;;;;;14.49;46.86;99982.53;4411428;32;20089;-68
2021/04/29 10:01:26;;;;;;;5.78;5.25;;;;;;;14.07;45.89;99981.47;4396664;32;20085;-67
2021/04/29 10:03:51;;;;;;;4.60;4.40;;;;;;;13.96;45.96;99984.94;4389728;32;20095;-68
2021/04/29 10:06:16;;;;;;;4.95;4.55;;;;;;;14.17;45.96;99985.06;4397649;32;20064;-68
2021/04/29 10:08:42;;;;;;;4.45;4.25;;;;;;;14.45;44.77;99973.19;4397021;32;20119;-68
2021/04/29 10:11:07;;;;;;;4.60;4.40;;;;;;;15.09;43.80;99972.38;4397100;32;20084;-67
2021/04/29 10:13:35;;;;;;;5.25;4.95;;;;;;;15.14;44.37;99975.50;4412143;32;20362;-67
2021/04/29 10:16:01;;;;;;;5.22;4.82;;;;;;;15.61;43.41;99974.28;4412237;32;20184;-69
2021/04/29 10:18:26;;;;;;;4.90;4.70;;;;;;;15.29;43.90;99977.81;4408746;32;20183;-68
2021/04/29 10:20:54;;;;;;;4.78;4.50;;;;;;;15.90;42.37;99972.66;4407041;32;20071;-68
2021/04/29 10:23:20;;;;;;;4.90;4.60;;;;;;;16.27;40.51;99973.91;4400317;32;20195;-67
2021/04/29 10:25:50;;;;;;;4.37;4.18;;;;;;;16.40;39.48;99963.06;4396414;32;20111;-68
2021/04/29 10:28:27;;;;;;;5.18;4.87;;;;;;;16.67;39.07;99973.88;4382571;32;20072;-70
2021/04/29 10:30:52;;;;;;;5.55;5.25;;;;;;;16.03;40.74;99967.12;4398500;32;20250;-69
2021/04/29 10:33:18;;;;;;;4.80;4.47;;;;;;;16.26;41.50;99972.25;4399411;32;20991;-67
2021/04/29 10:35:57;;;;;;;5.30;5.00;;;;;;;15.75;40.22;99976.63;4396073;32;20066;-69
2021/04/29 10:38:28;;;;;;;4.97;4.78;;;;;;;15.07;42.29;99976.13;4396863;32;20143;-70
2021/04/29 10:40:53;;;;;;;5.07;4.65;;;;;;;14.74;43.33;99968.19;4409775;32;20665;-69
2021/04/29 10:43:28;;;;;;;5.10;4.72;;;;;;;14.98;43.28;99977.72;4402184;32;20072;-68
2021/04/29 10:45:53;;;;;;;5.03;4.80;;;;;;;14.45;44.19;99948.56;4396939;32;20416;-69
2021/04/29 10:48:18;;;;;;;5.07;4.78;;;;;;;14.86;43.29;99978.75;4391607;32;20079;-69
2021/04/29 10:50:48;;;;;;;5.05;4.78;;;;;;;14.46;44.67;99993.31;4407319;32;20068;-69
2021/04/29 10:53:14;;;;;;;4.43;4.22;;;;;;;13.99;43.83;100000.53;4408210;32;20093;-67
2021/04/29 10:55:43;;;;;;;4.55;4.35;;;;;;;13.88;43.49;100004.00;4405390;32;20068;-69
2021/04/29 10:58:08;;;;;;;4.45;4.22;;;;;;;13.27;45.93;99983.13;4406173;32;20133;-68
2021/04/29 11:00:35;;;;;;;4.50;4.30;;;;;;;12.89;49.51;100026.31;4400080;32;20096;-67
2021/04/29 11:03:05;;;;;;;4.60;4.40;;;;;;;11.88;54.35;100031.59;4387924;32;20653;-68
2021/04/29 11:05:32;;;;;;;4.80;4.55;;;;;;;11.23;61.16;100052.62;4395397;32;20102;-68
2021/04/29 11:08:04;;;;;;;4.53;4.32;;;;;;;10.70;64.19;100058.56;4403604;32;20592;-71
2021/04/29 11:10:33;;;;;;;;;;;;;;;10.77;64.32;100059.06;4418139;32;20333;-67
2021/04/29 11:13:00;;;;;;;4.10;3.90;;;;;;;10.23;64.26;100062.34;4413042;32;20565;-66
2021/04/29 11:15:32;;;;;;;4.57;4.28;;;;;;;9.95;65.55;100069.25;4400138;32;20547;-66
2021/04/29 11:18:11;;;;;;;4.13;3.93;;;;;;;9.96;67.04;100065.72;4421033;32;20614;-68
2021/04/29 11:20:40;;;;;;;4.68;4.40;;;;;;;9.93;68.19;100063.25;4391091;32;20097;-67
2021/04/29 11:23:05;;;;;;;4.28;3.97;;;;;;;10.71;66.83;100059.44;4418380;32;20521;-67
2021/04/29 11:25:31;;;;;;;4.28;4.07;;;;;;;11.26;66.68;100049.78;4401839;32;20203;-67
2021/04/29 11:27:56;;;;;;;4.00;3.80;;;;;;;11.55;65.75;100053.13;4401393;32;20157;-68
2021/04/29 11:30:22;;;;;;;3.92;3.78;;;;;;;12.01;61.75;100036.91;4396152;32;20091;-64